CA-0299 weather

CLOSED Prophet River Airport
British Columbia, Canada

Public forecast

Using degrees Celsius for public forecast. Weather courtesy of forecast.io.

Closest aviation weather report (METAR) to Prophet River Airport

Closest report is Fort Nelson Airport, 52.5 nm (97.3 km) N. Retrieved 2019/10/17 07:41 UTC (0 seconds ago):

CYYE 170741Z 35004KT 4SM BR BKN006 OVC013 M00/M00 A2932 RMK ST7SC1 PRESFR SLP951

Closest aviation forecast (TAF) to Prophet River Airport

Closest forecast is Fort Nelson Airport, 52.5 nm (97.3 km) N. Retrieved 2019/10/17 07:42 UTC (0 seconds ago):

TAF CYYE 170638Z 1707/1719 VRB03KT P6SM OVC025 TEMPO 1707/1708 2SM -SN BR BKN005 FM170800 30006KT 1SM -SN BR OVC005 TEMPO 1708/1715 3SM -SN OVC010 FM171500 26005KT 5SM -SN OVC008 RMK NXT FCST BY 171300Z